Airfield :
LOGIN :

Register | Disclaimer

   EN    FR    IT 

 










Legend :    VFR   Marginal VFR   IFR   Intensive IFR   Very Intensive IFR
Visi :
Ceiling :
>= 8 km
>= 3000ft
5 to 8 km
1000 to 3000 ft
1500m to 5 km
500 to 1000 ft
800 to 1500m
200 to 500 ft
< 800m
< 200 ft
Symbols :   Thunderstorms  Fog  Heavy snow  Heavy precipitations  Wind > 20 kt
SIGMETs :     Misc.  Thunderstorms  Icing  Turbulence  Mountain Waves  Volcanic Ashes







- Airport Elevation : 63 ft
- IATA code : BZM


EHWO - Woensdrecht Airbase

CURRENT METAR :
  • 201409Z AUTO 24009KT 190V280 9999 FEW033 BKN060 OVC220 17/10 Q1019 BLU

EXPIRED METARs :
  • 201355Z AUTO 23008KT 180V280 9999 FEW032 18/10 Q1020 BLU 22007KT 9999 SCT028 SCT350
  • 201325Z AUTO 25010KT 210V320 9999 FEW031 OVC230 18/09 Q1020 BLU 22007KT 9999 SCT028 SCT350
  • 201255Z AUTO 24010KT 180V270 9999 FEW033 OVC240 18/10 Q1020 BLU 22007KT 9999 SCT028 SCT350
  • 201225Z AUTO 23008KT 190V260 9999 FEW034 SCT050 BKN250 18/11 Q1020 BLU 22007KT 9999 SCT028 SCT350
  • 201155Z AUTO 22010KT 200V270 9999 FEW025 SCT042 BKN052 17/11 Q1020 BLU 22007KT 9999 SCT028 SCT350
  • 201140Z AUTO 24008KT 190V290 9999 SCT022 BKN027 BKN031 17/11 Q1020 WHT 22007KT 9999 SCT022 SCT350

TAF TAF EHWO
Valid from the 20 at 09:00 until the 20 at 21:00 UTC


200819Z 2009/2021 23005KT CAVOK
No reported NOTAMs for that airfield.



MET'MAP, your aeronautical weather chart ! - Copyright ORBIFLY December 2007 - Disclaimer

ORBIFLY MET'MAP TEAM :

Programming & Development : Alexandra Zaïnal
Concept & Development : Baudouin d'Aumeries
Co-Development & Prog : Marc-Olivier Méhu
Technical & hardware support : Manuel Goepfert

Contact : metmap@orbifly.com




SOURCES & CREDITS :

   NOAA